Time;durP1;ratioP1;P1;durP2;ratioP2;P2;SDS_P1;SDS_P2;PMS_P1;PMS_P2;Temp;Humidity;BMP_temperature;BMP_pressure;BME280_temperature;BME280_humidity;BME280_pressure;Samples;Min_cycle;Max_cycle;Signal;HPM_P1;HPM_P2
2022/12/23 00:01:10;;;;;;;7.58;3.75;;;;;;;12.61;67.40;101547.03;1711888;83;21014;-51
2022/12/23 00:03:38;;;;;;;10.45;4.37;;;;;;;12.61;67.38;101550.12;1725541;83;21046;-50
2022/12/23 00:06:10;;;;;;;6.33;4.08;;;;;;;12.61;67.40;101548.34;1709000;83;21078;-50
2022/12/23 00:08:38;;;;;;;5.37;4.03;;;;;;;12.60;67.46;101545.33;1688624;84;21157;-51
2022/12/23 00:11:06;;;;;;;6.33;4.37;;;;;;;12.59;67.61;101544.06;1698548;84;21757;-51
2022/12/23 00:16:18;;;;;;;7.03;4.50;;;;;;;12.60;67.55;101541.41;1688096;83;21094;-51
2022/12/23 00:18:45;;;;;;;9.43;4.30;;;;;;;12.61;67.43;101539.20;1695672;84;21129;-51
2022/12/23 00:21:14;;;;;;;8.33;4.30;;;;;;;12.61;67.40;101537.06;1694987;84;22894;-51
2022/12/23 00:23:44;;;;;;;6.80;4.65;;;;;;;12.61;67.40;101534.45;1697900;84;21041;-51
2022/12/23 00:26:26;;;;;;;5.50;4.10;;;;;;;12.61;67.32;101530.06;1645364;86;21054;-51
2022/12/23 00:28:56;;;;;;;10.93;5.03;;;;;;;12.60;67.33;101534.89;1667567;85;21107;-51
2022/12/23 00:31:23;;;;;;;12.15;5.90;;;;;;;12.59;67.30;101531.84;1659361;85;21560;-51
2022/12/23 00:33:50;;;;;;;9.60;5.08;;;;;;;12.57;67.32;101529.70;1621634;87;21073;-50
2022/12/23 00:36:20;;;;;;;12.98;5.53;;;;;;;12.57;67.36;101527.09;1633984;87;21667;-51
2022/12/23 00:44:17;;;;;;;8.40;5.80;;;;;;;12.57;67.27;101525.79;1656064;85;21121;-50
2022/12/23 00:46:44;;;;;;;6.22;5.05;;;;;;;12.58;67.18;101527.52;1654366;86;21040;-51
2022/12/23 00:51:58;;;;;;;9.13;5.70;;;;;;;12.44;67.28;101525.61;1598276;87;21135;-50
2022/12/23 00:54:25;;;;;;;6.70;5.37;;;;;;;12.42;67.10;101523.47;1601457;87;21149;-50
2022/12/23 00:56:52;;;;;;;8.60;5.55;;;;;;;12.39;66.90;101518.28;1608128;88;21592;-50
2022/12/23 00:59:18;;;;;;;8.55;5.50;;;;;;;12.39;66.82;101520.89;1610268;87;21166;-50
2022/12/23 01:07:16;;;;;;;6.67;4.50;;;;;;;12.49;66.43;101511.17;1606310;87;21123;-50
2022/12/23 01:09:43;;;;;;;10.70;5.22;;;;;;;12.51;66.49;101508.93;1614701;87;21113;-50
2022/12/23 01:12:10;;;;;;;6.50;4.65;;;;;;;12.54;66.28;101512.80;1602412;88;21128;-51
2022/12/23 01:14:37;;;;;;;8.05;4.90;;;;;;;12.56;66.20;101511.03;1615016;88;21023;-52
2022/12/23 01:17:05;;;;;;;7.97;5.00;;;;;;;12.56;66.07;101507.11;1617014;88;21565;-51
2022/12/23 01:19:32;;;;;;;10.85;6.40;;;;;;;12.56;66.02;101503.20;1612938;88;21066;-51
2022/12/23 01:21:58;;;;;;;11.18;6.67;;;;;;;12.54;65.99;101491.92;1619285;87;21086;-51
2022/12/23 01:24:29;;;;;;;10.05;5.80;;;;;;;12.51;65.90;101489.35;1603831;87;21075;-50
2022/12/23 01:26:56;;;;;;;8.40;5.83;;;;;;;12.50;65.97;101487.64;1643521;87;21450;-50
2022/12/23 01:29:23;;;;;;;7.75;5.60;;;;;;;12.48;66.07;101480.29;1638386;87;21110;-50
2022/12/23 01:31:49;;;;;;;12.73;6.00;;;;;;;12.48;66.10;101475.06;1637658;86;21043;-50
2022/12/23 01:34:16;;;;;;;8.83;5.33;;;;;;;12.49;66.05;101468.94;1622825;88;21057;-51
2022/12/23 01:36:43;;;;;;;6.70;5.50;;;;;;;12.48;66.08;101467.23;1642954;87;21054;-51
2022/12/23 01:39:09;;;;;;;11.25;6.75;;;;;;;12.49;66.14;101469.41;1623621;87;21175;-51
2022/12/23 01:45:00;;;;;;;8.30;6.20;;;;;;;12.51;66.06;101452.80;1619631;88;21084;-51
2022/12/23 01:47:44;;;;;;;9.80;6.05;;;;;;;12.52;66.07;101451.93;1643306;82;21640;-51
2022/12/23 01:50:25;;;;;;;8.65;6.05;;;;;;;12.50;66.24;101453.71;1762680;80;22704;-50
2022/12/23 01:53:09;;;;;;;8.93;6.00;;;;;;;12.53;66.24;101466.69;1695462;83;21645;-50
2022/12/23 01:55:56;;;;;;;7.50;6.10;;;;;;;12.54;66.08;101463.20;1689954;83;21034;-51
2022/12/23 01:58:27;;;;;;;7.87;5.72;;;;;;;12.56;65.94;101458.81;1685757;83;21041;-51
2022/12/23 02:03:42;;;;;;;8.85;5.53;;;;;;;12.56;65.81;101459.25;1673002;84;21093;-51
2022/12/23 02:11:44;;;;;;;9.08;6.60;;;;;;;12.58;65.74;101452.25;1536519;92;21121;-50
2022/12/23 02:17:11;;;;;;;14.10;6.60;;;;;;;12.56;65.73;101453.59;1446255;98;21749;-50
2022/12/23 02:20:07;;;;;;;13.80;6.22;;;;;;;12.54;65.82;101450.16;1398682;101;21157;-50
2022/12/23 02:22:54;;;;;;;16.62;7.37;;;;;;;12.55;65.87;101449.72;1402126;99;21176;-51
2022/12/23 02:25:39;;;;;;;15.05;6.80;;;;;;;12.57;65.89;101447.47;1396061;101;21264;-51
2022/12/23 02:28:32;;;;;;;16.02;6.47;;;;;;;12.58;65.74;101446.59;1435519;97;21232;-51
2022/12/23 02:31:22;;;;;;;17.48;7.15;;;;;;;12.56;65.81;101444.45;1418623;99;21185;-51
2022/12/23 02:33:57;;;;;;;12.30;6.55;;;;;;;12.53;65.78;101437.97;1392072;101;21971;-51
2022/12/23 02:36:35;;;;;;;17.32;6.80;;;;;;;12.50;65.93;101435.44;1395434;101;21195;-51
2022/12/23 02:39:10;;;;;;;16.27;6.90;;;;;;;12.48;65.84;101444.18;1360698;103;21169;-51
2022/12/23 02:42:00;;;;;;;16.12;6.65;;;;;;;12.46;65.99;101445.95;1332117;106;21182;-50
2022/12/23 02:44:34;;;;;;;11.88;7.65;;;;;;;12.45;66.14;101442.91;1295683;109;21745;-51
2022/12/23 02:47:06;;;;;;;16.70;7.22;;;;;;;12.43;66.19;101435.12;1222144;114;21213;-51
2022/12/23 02:49:35;;;;;;;13.40;6.22;;;;;;;12.43;66.34;101433.81;1198292;118;21254;-50
2022/12/23 02:52:05;;;;;;;14.25;7.05;;;;;;;12.43;66.37;101441.64;1199941;118;21238;-51
2022/12/23 02:54:38;;;;;;;13.20;6.85;;;;;;;12.47;66.40;101440.70;1210441;118;21232;-51
2022/12/23 02:57:05;;;;;;;15.03;7.53;;;;;;;12.48;66.36;101433.30;1207495;117;21255;-51
2022/12/23 02:59:36;;;;;;;15.15;6.83;;;;;;;12.51;66.45;101431.92;1212685;117;21267;-51
2022/12/23 03:02:03;;;;;;;12.13;6.92;;;;;;;12.54;66.26;101436.23;1205457;117;21694;-51
2022/12/23 03:04:29;;;;;;;12.40;6.25;;;;;;;12.54;66.12;101433.19;1213422;116;21252;-51
2022/12/23 03:06:57;;;;;;;13.75;7.00;;;;;;;12.56;66.10;101435.32;1231390;115;21723;-50
2022/12/23 03:09:37;;;;;;;10.40;6.60;;;;;;;12.57;66.16;101429.66;1242482;114;21226;-51
2022/12/23 03:12:18;;;;;;;15.68;7.25;;;;;;;12.59;66.31;101437.02;1293271;108;21224;-51
2022/12/23 03:15:23;;;;;;;10.65;6.67;;;;;;;12.59;66.18;101432.63;1292733;109;21297;-51
2022/12/23 03:18:01;;;;;;;14.83;8.10;;;;;;;12.60;66.02;101439.59;1297814;109;21239;-51
2022/12/23 03:20:44;;;;;;;9.08;6.72;;;;;;;12.59;65.96;101435.72;1282716;110;21702;-50
2022/12/23 03:23:43;;;;;;;11.12;6.65;;;;;;;12.58;65.96;101436.16;1251782;113;21235;-51
2022/12/23 03:26:17;;;;;;;9.00;6.60;;;;;;;12.59;65.77;101439.63;1254042;114;21156;-50
2022/12/23 03:29:01;;;;;;;8.28;5.92;;;;;;;12.57;65.34;101442.25;1274300;110;21642;-51
2022/12/23 03:31:30;;;;;;;7.37;6.58;;;;;;;12.54;65.01;101437.09;1311639;108;21174;-51
2022/12/23 03:34:14;;;;;;;7.53;5.90;;;;;;;12.51;64.80;101441.53;1329996;106;21259;-50
2022/12/23 03:36:51;;;;;;;8.20;6.22;;;;;;;12.49;64.63;101443.31;1334018;106;21710;-50
2022/12/23 03:39:25;;;;;;;9.45;6.55;;;;;;;12.45;64.57;101436.39;1333313;106;21683;-51
2022/12/23 03:41:57;;;;;;;8.58;5.97;;;;;;;12.42;64.48;101445.60;1331351;106;21148;-51
2022/12/23 03:44:34;;;;;;;8.90;6.83;;;;;;;12.37;64.22;101444.38;1357682;103;21195;-51
2022/12/23 03:47:09;;;;;;;8.90;6.50;;;;;;;12.33;64.28;101438.80;1363211;104;21134;-50
2022/12/23 03:49:44;;;;;;;9.35;7.15;;;;;;;12.28;64.29;101438.03;1376684;103;21159;-50
2022/12/23 03:52:14;;;;;;;14.50;7.15;;;;;;;12.25;64.43;101448.08;1412244;99;21088;-51
2022/12/23 03:54:46;;;;;;;8.20;7.00;;;;;;;12.22;64.55;101446.80;1424874;99;21149;-51
2022/12/23 03:57:13;;;;;;;8.88;6.87;;;;;;;12.21;64.59;101439.02;1421671;99;21137;-51
